createdAt,value
2017-08-09T00:01:31.137Z,15.60
2017-08-09T00:03:58.755Z,15.60
2017-08-09T00:06:26.440Z,15.60
2017-08-09T00:08:54.061Z,15.60
2017-08-09T00:11:21.961Z,15.60
2017-08-09T00:13:49.620Z,15.60
2017-08-09T00:16:17.246Z,15.60
2017-08-09T00:18:44.867Z,15.60
2017-08-09T00:21:12.531Z,15.50
2017-08-09T00:23:40.150Z,15.50
2017-08-09T00:26:07.765Z,15.50
2017-08-09T00:28:35.469Z,15.60
2017-08-09T00:31:03.087Z,15.50
2017-08-09T00:33:30.706Z,15.60
2017-08-09T00:35:58.761Z,15.60
2017-08-09T00:38:26.377Z,15.60
2017-08-09T00:40:54.222Z,15.50
2017-08-09T00:43:21.885Z,15.60
2017-08-09T00:45:49.532Z,15.60
2017-08-09T00:48:17.157Z,15.70
2017-08-09T00:50:44.941Z,15.70
2017-08-09T00:53:12.561Z,15.70
2017-08-09T00:55:40.184Z,15.80
2017-08-09T00:58:07.868Z,15.80
2017-08-09T01:00:35.525Z,15.80
2017-08-09T01:03:03.144Z,15.90
2017-08-09T01:05:30.804Z,15.90
2017-08-09T01:07:58.421Z,15.90
2017-08-09T01:10:26.036Z,15.80
2017-08-09T01:12:53.683Z,15.90
2017-08-09T01:15:21.352Z,15.80
2017-08-09T01:17:48.973Z,15.80
2017-08-09T01:20:16.621Z,15.80
2017-08-09T01:22:44.530Z,15.80
2017-08-09T01:25:12.148Z,15.70
2017-08-09T01:27:39.825Z,15.70
2017-08-09T01:30:07.452Z,15.70
2017-08-09T01:32:35.096Z,15.60
2017-08-09T01:35:02.917Z,15.60
2017-08-09T01:37:30.535Z,15.60
2017-08-09T01:39:58.169Z,15.60
2017-08-09T01:42:26.629Z,15.80
2017-08-09T01:44:54.260Z,15.70
2017-08-09T01:47:21.916Z,15.80
2017-08-09T01:49:49.608Z,15.80
2017-08-09T01:52:17.280Z,15.90
2017-08-09T01:54:44.932Z,15.90
2017-08-09T01:57:12.837Z,15.80
2017-08-09T01:59:41.241Z,15.80
2017-08-09T02:02:08.930Z,15.70
2017-08-09T02:04:36.653Z,15.80
2017-08-09T02:07:04.261Z,15.70
2017-08-09T02:09:31.869Z,15.80
2017-08-09T02:11:59.550Z,15.70
2017-08-09T02:14:27.168Z,15.60
2017-08-09T02:16:54.922Z,15.60
2017-08-09T02:19:22.573Z,15.60
2017-08-09T02:21:50.184Z,15.60
2017-08-09T02:24:18.574Z,15.70
2017-08-09T02:26:46.247Z,15.60
2017-08-09T02:29:14.301Z,15.70
2017-08-09T02:31:41.913Z,15.70
2017-08-09T02:34:09.913Z,15.70
2017-08-09T02:36:37.532Z,15.60
2017-08-09T02:39:05.154Z,15.60
2017-08-09T02:41:33.573Z,15.60
2017-08-09T02:44:01.356Z,15.60
2017-08-09T02:46:28.971Z,15.70
2017-08-09T02:48:56.663Z,15.70
2017-08-09T02:51:24.334Z,15.70
2017-08-09T02:53:51.949Z,15.70
2017-08-09T02:56:19.683Z,15.70
2017-08-09T02:58:47.304Z,15.70
2017-08-09T03:01:14.915Z,15.70
2017-08-09T03:03:42.610Z,15.70
2017-08-09T03:06:10.323Z,15.70
2017-08-09T03:08:37.944Z,15.80
2017-08-09T03:11:05.610Z,15.80
2017-08-09T03:13:33.351Z,15.70
2017-08-09T03:16:00.969Z,15.80
2017-08-09T03:18:28.637Z,15.80
2017-08-09T03:20:56.249Z,15.80
2017-08-09T03:23:24.633Z,15.70
2017-08-09T03:25:53.284Z,15.70
2017-08-09T03:28:21.133Z,15.70
2017-08-09T03:30:48.742Z,15.80
2017-08-09T03:33:16.424Z,15.70
2017-08-09T03:35:44.039Z,15.70
2017-08-09T03:38:11.656Z,15.60
2017-08-09T03:40:39.329Z,15.60
2017-08-09T03:43:06.951Z,15.60
2017-08-09T03:45:35.105Z,15.60
2017-08-09T03:48:02.987Z,15.50
2017-08-09T03:50:30.609Z,15.50
2017-08-09T03:52:58.481Z,15.50
2017-08-09T03:55:26.157Z,15.50
2017-08-09T03:57:54.529Z,15.50
2017-08-09T04:00:22.188Z,15.50
2017-08-09T04:02:49.853Z,15.50
2017-08-09T04:05:17.460Z,15.50
2017-08-09T04:07:45.221Z,15.50
2017-08-09T04:10:12.887Z,15.50
2017-08-09T04:12:40.959Z,15.50
2017-08-09T04:15:09.861Z,15.50
2017-08-09T04:17:38.805Z,15.50
2017-08-09T04:20:06.420Z,15.50
2017-08-09T04:22:34.033Z,15.50
2017-08-09T04:25:01.731Z,15.50
2017-08-09T04:27:29.344Z,15.50
2017-08-09T04:29:56.953Z,15.50
2017-08-09T04:32:24.632Z,15.50
2017-08-09T04:34:52.250Z,15.40
2017-08-09T04:37:19.864Z,15.40
2017-08-09T04:39:47.520Z,15.40
2017-08-09T04:42:15.139Z,15.40
2017-08-09T04:44:42.756Z,15.50
2017-08-09T04:47:10.419Z,15.50
2017-08-09T04:49:38.035Z,15.50
2017-08-09T04:52:05.696Z,15.60
2017-08-09T04:54:33.452Z,15.50
2017-08-09T04:57:01.069Z,15.60
2017-08-09T04:59:28.689Z,15.60
2017-08-09T05:01:56.362Z,15.60
2017-08-09T05:04:23.975Z,15.60
2017-08-09T05:06:51.612Z,15.60
2017-08-09T05:09:19.316Z,15.60
2017-08-09T05:11:47.150Z,15.60
2017-08-09T05:14:14.770Z,15.60
2017-08-09T05:16:42.453Z,15.60
2017-08-09T05:19:10.828Z,15.60
2017-08-09T05:21:39.212Z,15.60
2017-08-09T05:24:07.647Z,15.60
2017-08-09T05:26:36.399Z,15.60
2017-08-09T05:29:04.961Z,15.50
2017-08-09T05:31:33.397Z,15.50
2017-08-09T05:34:01.077Z,15.50
2017-08-09T05:36:28.692Z,15.50
2017-08-09T05:38:56.681Z,15.60
2017-08-09T05:41:24.307Z,15.60
2017-08-09T05:43:51.936Z,15.70
2017-08-09T05:46:19.632Z,15.80
2017-08-09T05:48:48.068Z,15.90
2017-08-09T05:51:15.684Z,15.80
2017-08-09T05:53:43.345Z,15.90
2017-08-09T05:56:10.965Z,15.90
2017-08-09T05:58:38.592Z,15.90
2017-08-09T06:01:06.503Z,16.00
2017-08-09T06:03:34.110Z,16.00
2017-08-09T06:06:01.724Z,16.00
2017-08-09T06:08:29.372Z,16.00
2017-08-09T06:10:56.984Z,16.20
2017-08-09T06:13:25.351Z,16.30
2017-08-09T06:15:53.028Z,16.30
2017-08-09T06:18:20.641Z,16.40
2017-08-09T06:20:48.252Z,16.60
2017-08-09T06:23:15.900Z,16.80
2017-08-09T06:25:43.516Z,16.80
2017-08-09T06:28:11.304Z,17.00
2017-08-09T06:30:38.972Z,17.00
2017-08-09T06:33:07.154Z,17.00
2017-08-09T06:35:34.775Z,17.10
2017-08-09T06:38:02.583Z,17.10
2017-08-09T06:40:30.442Z,17.10
2017-08-09T06:42:58.066Z,17.10
2017-08-09T06:45:26.036Z,17.00
2017-08-09T06:47:53.652Z,16.90
2017-08-09T06:50:21.445Z,17.00
2017-08-09T06:52:49.358Z,17.10
2017-08-09T06:55:16.972Z,17.30
2017-08-09T06:57:44.580Z,17.50
2017-08-09T07:00:12.346Z,17.70
2017-08-09T07:02:39.965Z,17.90
2017-08-09T07:05:07.575Z,18.10
2017-08-09T07:07:35.273Z,18.10
2017-08-09T07:10:02.890Z,18.10
2017-08-09T07:12:30.516Z,18.10
2017-08-09T07:14:58.934Z,18.00
2017-08-09T07:17:26.552Z,18.00
2017-08-09T07:19:54.472Z,17.80
2017-08-09T07:22:22.160Z,17.60
2017-08-09T07:24:49.763Z,17.50
2017-08-09T07:27:17.373Z,17.40
2017-08-09T07:29:45.224Z,17.40
2017-08-09T07:32:12.840Z,17.40
2017-08-09T07:34:40.664Z,17.50
2017-08-09T07:37:08.323Z,17.50
2017-08-09T07:39:35.937Z,17.50
2017-08-09T07:42:03.653Z,17.60
2017-08-09T07:44:31.312Z,18.00
2017-08-09T07:46:58.925Z,18.30
2017-08-09T07:49:27.309Z,19.00
2017-08-09T07:51:55.025Z,19.00
2017-08-09T07:54:22.655Z,19.10
2017-08-09T07:56:50.273Z,19.00
2017-08-09T07:59:18.386Z,18.60
2017-08-09T08:01:46.008Z,18.50
2017-08-09T08:04:13.635Z,18.40
2017-08-09T08:06:41.353Z,18.20
2017-08-09T08:09:09.720Z,18.10
2017-08-09T08:11:38.103Z,18.10
2017-08-09T08:14:06.537Z,18.10
2017-08-09T08:16:34.150Z,18.10
2017-08-09T08:19:02.088Z,18.10
2017-08-09T08:21:29.768Z,18.30
2017-08-09T08:23:57.706Z,18.30
2017-08-09T08:26:25.367Z,18.40
2017-08-09T08:28:53.584Z,18.40
2017-08-09T08:31:21.207Z,18.50
2017-08-09T08:33:48.821Z,18.50
2017-08-09T08:36:16.488Z,18.60
2017-08-09T08:38:44.101Z,18.70
2017-08-09T08:41:11.714Z,19.00
2017-08-09T08:43:39.373Z,19.30
2017-08-09T08:46:07.761Z,19.00
2017-08-09T08:48:35.519Z,19.00
2017-08-09T08:51:04.134Z,18.80
2017-08-09T08:53:31.752Z,18.80
2017-08-09T08:55:59.371Z,18.70
2017-08-09T08:58:27.239Z,18.80
2017-08-09T09:00:55.316Z,18.80
2017-08-09T09:03:22.924Z,18.70
2017-08-09T09:05:50.602Z,18.60
2017-08-09T09:08:18.225Z,18.60
2017-08-09T09:10:45.844Z,18.60
2017-08-09T09:13:13.524Z,18.60
2017-08-09T09:15:41.132Z,18.80
2017-08-09T09:18:08.750Z,18.80
2017-08-09T09:20:36.414Z,18.90
2017-08-09T09:23:04.293Z,19.00
2017-08-09T09:25:31.921Z,19.10
2017-08-09T09:28:00.030Z,19.00
2017-08-09T09:30:27.641Z,19.10
2017-08-09T09:32:55.347Z,19.20
2017-08-09T09:35:23.049Z,19.30
2017-08-09T09:37:51.434Z,20.10
2017-08-09T09:40:20.086Z,20.10
2017-08-09T09:42:47.885Z,20.10
2017-08-09T09:45:16.271Z,20.20
2017-08-09T09:47:44.648Z,20.30
2017-08-09T09:50:13.108Z,20.20
2017-08-09T09:52:40.736Z,20.20
2017-08-09T09:55:08.351Z,20.10
2017-08-09T09:57:36.071Z,19.90
2017-08-09T10:00:03.834Z,19.90
2017-08-09T10:02:31.445Z,20.10
2017-08-09T10:04:59.117Z,20.70
2017-08-09T10:07:26.733Z,21.10
2017-08-09T10:09:54.353Z,21.20
2017-08-09T10:12:22.332Z,21.10
2017-08-09T10:14:50.122Z,21.10
2017-08-09T10:17:17.886Z,21.00
2017-08-09T10:19:45.542Z,21.00
2017-08-09T10:22:13.177Z,20.90
2017-08-09T10:24:40.796Z,20.80
2017-08-09T10:27:08.461Z,20.60
2017-08-09T10:29:36.084Z,20.50
2017-08-09T10:32:04.481Z,20.40
2017-08-09T10:34:32.138Z,20.40
2017-08-09T10:36:59.879Z,20.40
2017-08-09T10:39:27.511Z,20.60
2017-08-09T10:41:56.077Z,20.70
2017-08-09T10:44:23.689Z,20.70
2017-08-09T10:46:51.309Z,20.60
2017-08-09T10:49:18.972Z,20.60
2017-08-09T10:51:46.602Z,20.60
2017-08-09T10:54:14.422Z,20.90
2017-08-09T10:56:42.372Z,21.20
2017-08-09T10:59:09.979Z,21.60
2017-08-09T11:01:37.592Z,21.60
2017-08-09T11:04:05.264Z,21.60
2017-08-09T11:06:33.080Z,21.60
2017-08-09T11:09:00.703Z,21.40
2017-08-09T11:11:28.373Z,21.20
2017-08-09T11:13:56.752Z,21.20
2017-08-09T11:16:24.369Z,21.10
2017-08-09T11:18:52.943Z,21.20
2017-08-09T11:21:20.570Z,21.20
2017-08-09T11:23:48.372Z,21.20
2017-08-09T11:26:16.053Z,21.30
2017-08-09T11:28:43.702Z,21.40
2017-08-09T11:31:11.324Z,21.40
2017-08-09T11:33:39.001Z,21.40
2017-08-09T11:36:06.634Z,21.50
2017-08-09T11:38:35.045Z,21.60
2017-08-09T11:41:02.714Z,21.60
2017-08-09T11:43:30.510Z,21.60
2017-08-09T11:45:58.322Z,21.60
2017-08-09T11:48:26.045Z,21.70
2017-08-09T11:50:53.689Z,21.90
2017-08-09T11:53:21.314Z,22.10
2017-08-09T11:55:48.984Z,22.30
2017-08-09T11:58:16.807Z,22.30
2017-08-09T12:00:44.432Z,22.20
2017-08-09T12:03:12.108Z,22.20
2017-08-09T12:05:40.894Z,22.20
2017-08-09T12:08:08.518Z,22.20
2017-08-09T12:10:36.203Z,22.20
2017-08-09T12:13:04.007Z,22.00
2017-08-09T12:15:31.703Z,22.10
2017-08-09T12:17:59.381Z,22.20
2017-08-09T12:20:26.998Z,22.20
2017-08-09T12:22:54.669Z,22.10
2017-08-09T12:25:22.596Z,22.10
2017-08-09T12:27:50.220Z,22.10
2017-08-09T12:30:17.908Z,22.30
2017-08-09T12:32:45.613Z,22.40
2017-08-09T12:35:13.282Z,22.40
2017-08-09T12:37:40.871Z,22.30
2017-08-09T12:40:08.812Z,22.20
2017-08-09T12:42:37.061Z,22.10
2017-08-09T12:45:04.953Z,22.10
2017-08-09T12:47:33.169Z,21.90
2017-08-09T12:50:00.785Z,21.90
2017-08-09T12:52:28.648Z,21.90
2017-08-09T12:54:56.322Z,21.80
2017-08-09T12:57:23.950Z,21.80
2017-08-09T12:59:51.898Z,21.80
2017-08-09T13:02:19.573Z,21.80
2017-08-09T13:04:47.198Z,21.80
2017-08-09T13:07:14.820Z,21.70
2017-08-09T13:09:42.497Z,21.60
2017-08-09T13:12:10.377Z,21.60
2017-08-09T13:14:38.024Z,21.60
2017-08-09T13:17:05.689Z,21.60
2017-08-09T13:19:33.309Z,21.70
2017-08-09T13:22:00.925Z,21.80
2017-08-09T13:24:28.605Z,22.00
2017-08-09T13:26:56.220Z,22.00
2017-08-09T13:29:23.845Z,22.00
2017-08-09T13:31:52.567Z,22.00
2017-08-09T13:34:20.508Z,22.00
2017-08-09T13:36:48.115Z,22.00
2017-08-09T13:39:15.796Z,21.90
2017-08-09T13:41:43.653Z,21.80
2017-08-09T13:44:11.407Z,21.70
2017-08-09T13:46:39.343Z,21.70
2017-08-09T13:49:07.161Z,21.70
2017-08-09T13:51:34.934Z,21.70
2017-08-09T13:54:02.598Z,21.60
2017-08-09T13:56:30.218Z,21.60
2017-08-09T13:58:57.842Z,21.60
2017-08-09T14:01:25.513Z,21.70
2017-08-09T14:03:53.250Z,21.70
2017-08-09T14:06:20.894Z,21.80
2017-08-09T14:08:48.844Z,21.90
2017-08-09T14:11:17.007Z,21.90
2017-08-09T14:13:45.174Z,21.90
2017-08-09T14:16:13.298Z,21.90
2017-08-09T14:18:41.651Z,21.90
2017-08-09T14:21:09.988Z,21.90
2017-08-09T14:23:40.004Z,21.90
2017-08-09T14:26:08.968Z,21.90
2017-08-09T14:28:37.585Z,22.00
2017-08-09T14:31:06.511Z,22.00
2017-08-09T14:33:35.518Z,22.00
2017-08-09T14:36:03.306Z,22.00
2017-08-09T14:38:31.013Z,22.00
2017-08-09T14:40:58.632Z,22.10
2017-08-09T14:43:26.305Z,22.10
2017-08-09T14:45:54.060Z,22.10
2017-08-09T14:48:21.824Z,22.10
2017-08-09T14:50:49.590Z,22.10
2017-08-09T14:53:17.446Z,22.10
2017-08-09T14:55:45.121Z,22.10
2017-08-09T14:58:12.740Z,22.10
2017-08-09T15:00:40.658Z,22.10
2017-08-09T15:03:08.424Z,22.10
2017-08-09T15:05:36.062Z,22.10
2017-08-09T15:08:03.744Z,22.10
2017-08-09T15:10:31.370Z,22.10
2017-08-09T15:12:58.985Z,22.10
2017-08-09T15:15:26.794Z,22.10
2017-08-09T15:17:54.705Z,22.10
2017-08-09T15:20:22.317Z,22.10
2017-08-09T15:22:50.016Z,22.00
2017-08-09T15:25:17.665Z,22.10
2017-08-09T15:27:45.272Z,22.00
2017-08-09T15:30:12.941Z,22.00
2017-08-09T15:32:41.384Z,22.10
2017-08-09T15:35:08.999Z,22.10
2017-08-09T15:37:36.694Z,22.10
2017-08-09T15:40:05.244Z,22.00
2017-08-09T15:42:33.649Z,22.00
2017-08-09T15:45:01.447Z,22.00
2017-08-09T15:47:29.077Z,22.00
2017-08-09T15:49:56.697Z,22.00
2017-08-09T15:52:24.405Z,22.10
2017-08-09T15:54:52.025Z,22.10
2017-08-09T15:57:19.650Z,22.10
2017-08-09T15:59:47.315Z,22.10
2017-08-09T16:02:14.974Z,22.20
2017-08-09T16:04:42.598Z,22.10
2017-08-09T16:07:10.265Z,22.10
2017-08-09T16:09:37.878Z,22.00
2017-08-09T16:12:05.548Z,22.00
2017-08-09T16:14:33.400Z,22.00
2017-08-09T16:17:01.038Z,22.00
2017-08-09T16:19:28.684Z,22.00
2017-08-09T16:21:57.014Z,21.90
2017-08-09T16:24:25.074Z,21.90
2017-08-09T16:26:52.693Z,21.90
2017-08-09T16:29:20.353Z,21.90
2017-08-09T16:31:48.164Z,21.90
2017-08-09T16:34:15.792Z,21.90
2017-08-09T16:36:43.598Z,21.90
2017-08-09T16:39:11.214Z,21.90
2017-08-09T16:41:38.836Z,21.90
2017-08-09T16:44:06.496Z,21.90
2017-08-09T16:46:34.119Z,21.80
2017-08-09T16:49:01.737Z,21.80
2017-08-09T16:51:29.548Z,21.80
2017-08-09T16:53:57.174Z,21.80
2017-08-09T16:56:24.817Z,21.70
2017-08-09T16:58:52.490Z,21.70
2017-08-09T17:01:20.119Z,21.70
2017-08-09T17:03:47.748Z,21.70
2017-08-09T17:06:16.048Z,21.70
2017-08-09T17:08:43.931Z,21.60
2017-08-09T17:11:11.912Z,21.60
2017-08-09T17:13:39.582Z,21.60
2017-08-09T17:16:07.211Z,21.60
2017-08-09T17:18:35.886Z,21.60
2017-08-09T17:21:03.563Z,21.60
2017-08-09T17:23:31.183Z,21.60
2017-08-09T17:25:58.800Z,21.50
2017-08-09T17:28:26.480Z,21.60
2017-08-09T17:30:54.377Z,21.50
2017-08-09T17:33:22.761Z,21.40
2017-08-09T17:35:51.413Z,21.40
2017-08-09T17:38:19.177Z,21.40
2017-08-09T17:40:46.789Z,21.40
2017-08-09T17:43:14.492Z,21.40
2017-08-09T17:45:42.108Z,21.40
2017-08-09T17:48:09.720Z,21.50
2017-08-09T17:50:37.386Z,21.50
2017-08-09T17:53:05.554Z,21.50
2017-08-09T17:55:33.217Z,21.50
2017-08-09T17:58:01.501Z,21.50
2017-08-09T18:00:29.156Z,21.50
2017-08-09T18:02:56.829Z,21.50
2017-08-09T18:05:25.303Z,21.50
2017-08-09T18:07:52.912Z,21.50
2017-08-09T18:10:20.539Z,21.50
2017-08-09T18:12:48.292Z,21.50
2017-08-09T18:15:15.908Z,21.50
2017-08-09T18:17:43.534Z,21.50
2017-08-09T18:20:11.209Z,21.50
2017-08-09T18:22:39.325Z,21.50
2017-08-09T18:25:07.665Z,21.50
2017-08-09T18:27:35.613Z,21.50
2017-08-09T18:30:03.795Z,21.50
2017-08-09T18:32:31.860Z,21.50
2017-08-09T18:35:00.116Z,21.40
2017-08-09T18:37:28.137Z,21.40
2017-08-09T18:39:56.532Z,21.40
2017-08-09T18:42:24.321Z,21.30
2017-08-09T18:44:52.924Z,21.20
2017-08-09T18:47:20.648Z,21.20
2017-08-09T18:49:49.581Z,21.10
2017-08-09T18:52:17.669Z,21.10
2017-08-09T18:54:45.342Z,21.10
2017-08-09T18:57:13.052Z,21.10
2017-08-09T18:59:40.724Z,21.00
2017-08-09T19:02:08.990Z,21.00
2017-08-09T19:04:37.485Z,21.00
2017-08-09T19:07:05.152Z,20.90
2017-08-09T19:09:33.391Z,20.80
2017-08-09T19:12:01.113Z,20.80
2017-08-09T19:14:29.243Z,20.80
2017-08-09T19:16:56.924Z,20.70
2017-08-09T19:19:24.770Z,20.80
2017-08-09T19:21:53.010Z,20.70
2017-08-09T19:24:21.173Z,20.70
2017-08-09T19:26:49.531Z,20.70
2017-08-09T19:29:17.165Z,20.60
2017-08-09T19:31:45.083Z,20.70
2017-08-09T19:34:13.284Z,20.70
2017-08-09T19:36:41.577Z,20.60
2017-08-09T19:39:09.513Z,20.60
2017-08-09T19:41:37.594Z,20.60
2017-08-09T19:44:05.806Z,20.60
2017-08-09T19:46:33.469Z,20.60
2017-08-09T19:49:02.523Z,20.50
2017-08-09T19:51:30.797Z,20.50
2017-08-09T19:53:58.985Z,20.50
2017-08-09T19:56:27.052Z,20.40
2017-08-09T19:58:55.356Z,20.40
2017-08-09T20:01:24.412Z,20.30
2017-08-09T20:03:52.572Z,20.30
2017-08-09T20:06:20.448Z,20.30
2017-08-09T20:08:48.668Z,20.30
2017-08-09T20:11:16.744Z,20.20
2017-08-09T20:13:44.404Z,20.20
2017-08-09T20:16:12.584Z,20.20
2017-08-09T20:18:40.600Z,20.20
2017-08-09T20:21:08.274Z,20.10
2017-08-09T20:23:36.604Z,20.00
2017-08-09T20:26:04.436Z,20.00
2017-08-09T20:28:32.595Z,20.00
2017-08-09T20:31:00.220Z,20.00
2017-08-09T20:33:27.888Z,19.90
2017-08-09T20:35:55.560Z,19.90
2017-08-09T20:38:23.385Z,19.90
2017-08-09T20:40:51.857Z,19.80
2017-08-09T20:43:19.493Z,19.90
2017-08-09T20:45:47.218Z,19.80
2017-08-09T20:48:15.991Z,19.80
2017-08-09T20:50:45.358Z,19.80
2017-08-09T20:53:12.987Z,19.70
2017-08-09T20:55:40.669Z,19.70
2017-08-09T20:58:09.777Z,19.70
2017-08-09T21:00:38.138Z,19.70
2017-08-09T21:03:05.865Z,19.70
2017-08-09T21:05:35.049Z,19.60
2017-08-09T21:08:03.801Z,19.60
2017-08-09T21:10:32.537Z,19.50
2017-08-09T21:13:01.511Z,19.50
2017-08-09T21:15:31.189Z,19.50
2017-08-09T21:18:00.005Z,19.50
2017-08-09T21:20:27.960Z,19.40
2017-08-09T21:22:55.594Z,19.30
2017-08-09T21:25:24.159Z,19.30
2017-08-09T21:27:53.069Z,19.20
2017-08-09T21:30:20.877Z,19.10
2017-08-09T21:32:48.639Z,19.00
2017-08-09T21:35:16.401Z,18.90
2017-08-09T21:37:44.130Z,18.90
2017-08-09T21:40:14.989Z,18.80
2017-08-09T21:42:43.702Z,18.80
2017-08-09T21:45:11.682Z,18.70
2017-08-09T21:47:40.196Z,18.60
2017-08-09T21:50:08.556Z,18.60
2017-08-09T21:52:36.581Z,18.60
2017-08-09T21:55:04.379Z,18.60
2017-08-09T21:57:33.949Z,18.60
2017-08-09T22:00:03.304Z,18.60
2017-08-09T22:02:32.451Z,18.60
2017-08-09T22:05:00.833Z,18.50
2017-08-09T22:07:29.879Z,18.40
2017-08-09T22:09:57.489Z,18.30
2017-08-09T22:12:25.113Z,18.30
2017-08-09T22:14:52.787Z,18.30
2017-08-09T22:17:20.585Z,18.20
2017-08-09T22:19:48.236Z,18.20
2017-08-09T22:22:15.924Z,18.10
2017-08-09T22:24:43.545Z,18.10
2017-08-09T22:27:11.165Z,18.00
2017-08-09T22:29:38.829Z,18.00
2017-08-09T22:32:07.486Z,17.90
2017-08-09T22:34:35.110Z,17.90
2017-08-09T22:37:02.829Z,17.80
2017-08-09T22:39:30.473Z,17.80
2017-08-09T22:41:58.108Z,17.80
2017-08-09T22:44:26.003Z,17.80
2017-08-09T22:46:53.629Z,17.90
2017-08-09T22:49:21.251Z,17.90
2017-08-09T22:51:49.698Z,18.00
2017-08-09T22:54:17.320Z,17.90
2017-08-09T22:56:44.946Z,18.00
2017-08-09T22:59:12.634Z,18.00
2017-08-09T23:01:41.032Z,18.20
2017-08-09T23:04:08.652Z,18.20
2017-08-09T23:06:36.518Z,18.30
2017-08-09T23:09:04.580Z,18.40
2017-08-09T23:11:32.193Z,18.40
2017-08-09T23:13:59.893Z,18.40
2017-08-09T23:16:27.517Z,18.30
2017-08-09T23:18:55.138Z,18.30
2017-08-09T23:21:22.806Z,18.30
2017-08-09T23:23:50.648Z,18.20
2017-08-09T23:26:18.273Z,18.20
2017-08-09T23:28:45.969Z,18.10
2017-08-09T23:31:13.594Z,18.00
2017-08-09T23:33:42.232Z,17.90
2017-08-09T23:36:09.938Z,17.90
2017-08-09T23:38:37.564Z,17.80
2017-08-09T23:41:05.192Z,17.80
2017-08-09T23:43:32.869Z,17.70
2017-08-09T23:46:00.540Z,17.70
2017-08-09T23:48:28.171Z,17.60
2017-08-09T23:50:55.855Z,17.70
2017-08-09T23:53:23.477Z,17.70
2017-08-09T23:55:52.126Z,17.70
2017-08-09T23:58:19.812Z,17.70
